sensor_id;sensor_type;location;lat;lon;timestamp;P1;durP1;ratioP1;P2;durP2;ratioP2
48285;SDS011;34102;47.716;10.296;2022-08-07T00:00:38;22.95;;;19.05;;
48285;SDS011;34102;47.716;10.296;2022-08-07T00:03:03;20.87;;;17.80;;
48285;SDS011;34102;47.716;10.296;2022-08-07T00:05:29;22.45;;;18.20;;
48285;SDS011;34102;47.716;10.296;2022-08-07T00:07:54;20.38;;;17.05;;
48285;SDS011;34102;47.716;10.296;2022-08-07T00:10:20;24.80;;;19.50;;
48285;SDS011;34102;47.716;10.296;2022-08-07T00:12:47;22.00;;;18.42;;
48285;SDS011;34102;47.716;10.296;2022-08-07T00:15:13;21.52;;;18.38;;
48285;SDS011;34102;47.716;10.296;2022-08-07T00:17:38;24.95;;;19.27;;
48285;SDS011;34102;47.716;10.296;2022-08-07T00:20:04;21.73;;;18.25;;
48285;SDS011;34102;47.716;10.296;2022-08-07T00:22:29;21.35;;;18.50;;
48285;SDS011;34102;47.716;10.296;2022-08-07T00:24:54;22.30;;;18.85;;
48285;SDS011;34102;47.716;10.296;2022-08-07T00:27:20;21.42;;;18.42;;
48285;SDS011;34102;47.716;10.296;2022-08-07T00:29:45;21.88;;;17.70;;
48285;SDS011;34102;47.716;10.296;2022-08-07T00:32:10;23.30;;;18.37;;
48285;SDS011;34102;47.716;10.296;2022-08-07T00:34:37;22.63;;;18.73;;
48285;SDS011;34102;47.716;10.296;2022-08-07T00:37:03;21.77;;;18.67;;
48285;SDS011;34102;47.716;10.296;2022-08-07T00:39:28;22.77;;;18.50;;
48285;SDS011;34102;47.716;10.296;2022-08-07T00:41:55;23.30;;;18.67;;
48285;SDS011;34102;47.716;10.296;2022-08-07T00:44:21;24.52;;;19.17;;
48285;SDS011;34102;47.716;10.296;2022-08-07T00:46:46;20.38;;;18.20;;
48285;SDS011;34102;47.716;10.296;2022-08-07T00:49:12;25.13;;;19.17;;
48285;SDS011;34102;47.716;10.296;2022-08-07T00:51:37;20.83;;;17.33;;
48285;SDS011;34102;47.716;10.296;2022-08-07T00:54:02;21.75;;;18.50;;
48285;SDS011;34102;47.716;10.296;2022-08-07T00:56:28;22.33;;;19.20;;
48285;SDS011;34102;47.716;10.296;2022-08-07T00:58:54;24.65;;;18.20;;
48285;SDS011;34102;47.716;10.296;2022-08-07T01:01:19;24.35;;;18.20;;
48285;SDS011;34102;47.716;10.296;2022-08-07T01:03:45;22.63;;;19.20;;
48285;SDS011;34102;47.716;10.296;2022-08-07T01:06:10;23.73;;;19.08;;
48285;SDS011;34102;47.716;10.296;2022-08-07T01:08:36;26.40;;;19.65;;
48285;SDS011;34102;47.716;10.296;2022-08-07T01:11:01;26.20;;;21.38;;
48285;SDS011;34102;47.716;10.296;2022-08-07T01:13:26;26.00;;;20.80;;
48285;SDS011;34102;47.716;10.296;2022-08-07T01:15:52;24.75;;;21.48;;
48285;SDS011;34102;47.716;10.296;2022-08-07T01:18:18;23.65;;;19.88;;
48285;SDS011;34102;47.716;10.296;2022-08-07T01:20:44;24.50;;;19.77;;
48285;SDS011;34102;47.716;10.296;2022-08-07T01:23:10;25.30;;;21.33;;
48285;SDS011;34102;47.716;10.296;2022-08-07T01:25:36;24.48;;;20.83;;
48285;SDS011;34102;47.716;10.296;2022-08-07T01:28:01;27.30;;;21.45;;
48285;SDS011;34102;47.716;10.296;2022-08-07T01:30:27;24.30;;;21.42;;
48285;SDS011;34102;47.716;10.296;2022-08-07T01:32:53;27.05;;;20.30;;
48285;SDS011;34102;47.716;10.296;2022-08-07T01:35:19;26.77;;;21.38;;
48285;SDS011;34102;47.716;10.296;2022-08-07T01:37:44;26.02;;;21.05;;
48285;SDS011;34102;47.716;10.296;2022-08-07T01:40:10;24.75;;;21.20;;
48285;SDS011;34102;47.716;10.296;2022-08-07T01:42:36;26.35;;;20.80;;
48285;SDS011;34102;47.716;10.296;2022-08-07T01:45:02;27.95;;;21.13;;
48285;SDS011;34102;47.716;10.296;2022-08-07T01:47:28;24.55;;;20.77;;
48285;SDS011;34102;47.716;10.296;2022-08-07T01:49:54;35.38;;;21.40;;
48285;SDS011;34102;47.716;10.296;2022-08-07T01:52:19;25.15;;;20.50;;
48285;SDS011;34102;47.716;10.296;2022-08-07T01:54:47;24.40;;;21.35;;
48285;SDS011;34102;47.716;10.296;2022-08-07T01:57:19;23.92;;;21.00;;
48285;SDS011;34102;47.716;10.296;2022-08-07T01:59:46;25.13;;;20.55;;
48285;SDS011;34102;47.716;10.296;2022-08-07T02:02:16;22.73;;;19.42;;
48285;SDS011;34102;47.716;10.296;2022-08-07T02:04:46;22.42;;;19.13;;
48285;SDS011;34102;47.716;10.296;2022-08-07T02:07:13;22.77;;;18.85;;
48285;SDS011;34102;47.716;10.296;2022-08-07T02:09:40;23.27;;;19.02;;
48285;SDS011;34102;47.716;10.296;2022-08-07T02:12:07;21.40;;;18.98;;
48285;SDS011;34102;47.716;10.296;2022-08-07T02:14:49;21.13;;;17.98;;
48285;SDS011;34102;47.716;10.296;2022-08-07T02:17:15;24.58;;;17.67;;
48285;SDS011;34102;47.716;10.296;2022-08-07T02:19:42;20.45;;;17.83;;
48285;SDS011;34102;47.716;10.296;2022-08-07T02:22:09;19.60;;;16.52;;
48285;SDS011;34102;47.716;10.296;2022-08-07T02:24:35;20.23;;;15.85;;
48285;SDS011;34102;47.716;10.296;2022-08-07T02:27:01;18.23;;;15.80;;
48285;SDS011;34102;47.716;10.296;2022-08-07T02:29:26;18.38;;;15.65;;
48285;SDS011;34102;47.716;10.296;2022-08-07T02:31:52;20.38;;;15.57;;
48285;SDS011;34102;47.716;10.296;2022-08-07T02:34:17;16.20;;;14.52;;
48285;SDS011;34102;47.716;10.296;2022-08-07T02:36:43;20.30;;;15.52;;
48285;SDS011;34102;47.716;10.296;2022-08-07T02:39:09;18.13;;;13.95;;
48285;SDS011;34102;47.716;10.296;2022-08-07T02:41:34;18.85;;;14.60;;
48285;SDS011;34102;47.716;10.296;2022-08-07T02:44:00;16.23;;;14.45;;
48285;SDS011;34102;47.716;10.296;2022-08-07T02:46:26;17.27;;;14.05;;
48285;SDS011;34102;47.716;10.296;2022-08-07T02:48:52;16.30;;;14.23;;
48285;SDS011;34102;47.716;10.296;2022-08-07T02:51:17;16.75;;;14.93;;
48285;SDS011;34102;47.716;10.296;2022-08-07T02:53:43;17.60;;;14.32;;
48285;SDS011;34102;47.716;10.296;2022-08-07T02:56:13;17.88;;;15.68;;
48285;SDS011;34102;47.716;10.296;2022-08-07T02:58:42;17.23;;;15.15;;
48285;SDS011;34102;47.716;10.296;2022-08-07T03:01:08;16.13;;;14.23;;
48285;SDS011;34102;47.716;10.296;2022-08-07T03:03:34;16.92;;;14.13;;
48285;SDS011;34102;47.716;10.296;2022-08-07T03:06:01;16.83;;;14.25;;
48285;SDS011;34102;47.716;10.296;2022-08-07T03:08:26;16.42;;;14.60;;
48285;SDS011;34102;47.716;10.296;2022-08-07T03:10:52;17.60;;;14.30;;
48285;SDS011;34102;47.716;10.296;2022-08-07T03:13:17;16.73;;;14.50;;
48285;SDS011;34102;47.716;10.296;2022-08-07T03:15:43;18.30;;;15.73;;
48285;SDS011;34102;47.716;10.296;2022-08-07T03:18:08;16.65;;;13.68;;
48285;SDS011;34102;47.716;10.296;2022-08-07T03:20:34;18.92;;;14.35;;
48285;SDS011;34102;47.716;10.296;2022-08-07T03:23:00;16.33;;;14.15;;
48285;SDS011;34102;47.716;10.296;2022-08-07T03:25:26;16.88;;;14.43;;
48285;SDS011;34102;47.716;10.296;2022-08-07T03:27:52;15.90;;;13.93;;
48285;SDS011;34102;47.716;10.296;2022-08-07T03:30:18;17.38;;;13.75;;
48285;SDS011;34102;47.716;10.296;2022-08-07T03:32:45;16.77;;;14.45;;
48285;SDS011;34102;47.716;10.296;2022-08-07T03:35:12;19.45;;;14.80;;
48285;SDS011;34102;47.716;10.296;2022-08-07T03:37:39;17.45;;;14.38;;
48285;SDS011;34102;47.716;10.296;2022-08-07T03:40:06;16.85;;;13.98;;
48285;SDS011;34102;47.716;10.296;2022-08-07T03:42:33;15.15;;;13.45;;
48285;SDS011;34102;47.716;10.296;2022-08-07T03:44:59;16.55;;;14.07;;
48285;SDS011;34102;47.716;10.296;2022-08-07T03:47:25;16.80;;;13.82;;
48285;SDS011;34102;47.716;10.296;2022-08-07T03:49:51;15.25;;;13.00;;
48285;SDS011;34102;47.716;10.296;2022-08-07T03:52:16;15.93;;;13.77;;
48285;SDS011;34102;47.716;10.296;2022-08-07T03:54:41;19.00;;;14.65;;
48285;SDS011;34102;47.716;10.296;2022-08-07T03:57:07;16.13;;;11.90;;
48285;SDS011;34102;47.716;10.296;2022-08-07T03:59:33;14.70;;;12.55;;
48285;SDS011;34102;47.716;10.296;2022-08-07T04:01:58;13.75;;;12.02;;
48285;SDS011;34102;47.716;10.296;2022-08-07T04:04:24;14.88;;;12.27;;
48285;SDS011;34102;47.716;10.296;2022-08-07T04:06:50;13.25;;;10.73;;
48285;SDS011;34102;47.716;10.296;2022-08-07T04:09:15;13.02;;;11.45;;
48285;SDS011;34102;47.716;10.296;2022-08-07T04:11:41;15.52;;;11.23;;
48285;SDS011;34102;47.716;10.296;2022-08-07T04:14:06;14.73;;;12.02;;
48285;SDS011;34102;47.716;10.296;2022-08-07T04:16:32;14.77;;;10.85;;
48285;SDS011;34102;47.716;10.296;2022-08-07T04:18:58;13.32;;;11.13;;
48285;SDS011;34102;47.716;10.296;2022-08-07T04:21:24;13.95;;;10.82;;
48285;SDS011;34102;47.716;10.296;2022-08-07T04:23:49;13.55;;;10.23;;
48285;SDS011;34102;47.716;10.296;2022-08-07T04:26:15;10.95;;;9.82;;
48285;SDS011;34102;47.716;10.296;2022-08-07T04:28:41;13.15;;;9.15;;
48285;SDS011;34102;47.716;10.296;2022-08-07T04:31:07;10.85;;;9.55;;
48285;SDS011;34102;47.716;10.296;2022-08-07T04:33:32;10.70;;;9.60;;
48285;SDS011;34102;47.716;10.296;2022-08-07T04:35:58;10.38;;;8.93;;
48285;SDS011;34102;47.716;10.296;2022-08-07T04:38:24;9.68;;;8.57;;
48285;SDS011;34102;47.716;10.296;2022-08-07T04:40:50;10.20;;;8.63;;
48285;SDS011;34102;47.716;10.296;2022-08-07T04:43:16;10.98;;;9.18;;
48285;SDS011;34102;47.716;10.296;2022-08-07T04:48:11;9.15;;;7.80;;
48285;SDS011;34102;47.716;10.296;2022-08-07T04:50:43;9.43;;;8.23;;
48285;SDS011;34102;47.716;10.296;2022-08-07T04:53:11;10.52;;;8.40;;
48285;SDS011;34102;47.716;10.296;2022-08-07T04:58:31;9.32;;;7.40;;
48285;SDS011;34102;47.716;10.296;2022-08-07T05:00:56;10.38;;;7.82;;
48285;SDS011;34102;47.716;10.296;2022-08-07T05:03:35;8.88;;;7.32;;
48285;SDS011;34102;47.716;10.296;2022-08-07T05:06:08;10.77;;;7.88;;
48285;SDS011;34102;47.716;10.296;2022-08-07T05:11:04;7.50;;;6.68;;
48285;SDS011;34102;47.716;10.296;2022-08-07T05:13:35;6.93;;;5.90;;
48285;SDS011;34102;47.716;10.296;2022-08-07T05:16:01;7.70;;;6.10;;
48285;SDS011;34102;47.716;10.296;2022-08-07T05:18:28;6.78;;;5.32;;
48285;SDS011;34102;47.716;10.296;2022-08-07T05:20:58;6.20;;;4.57;;
48285;SDS011;34102;47.716;10.296;2022-08-07T05:25:59;7.28;;;6.15;;
48285;SDS011;34102;47.716;10.296;2022-08-07T05:28:27;6.28;;;5.68;;
48285;SDS011;34102;47.716;10.296;2022-08-07T05:30:53;6.20;;;5.18;;
48285;SDS011;34102;47.716;10.296;2022-08-07T05:33:19;6.40;;;5.70;;
48285;SDS011;34102;47.716;10.296;2022-08-07T05:35:45;6.00;;;4.85;;
48285;SDS011;34102;47.716;10.296;2022-08-07T05:38:10;6.43;;;5.13;;
48285;SDS011;34102;47.716;10.296;2022-08-07T05:40:37;8.18;;;6.32;;
48285;SDS011;34102;47.716;10.296;2022-08-07T05:43:03;7.22;;;5.90;;
48285;SDS011;34102;47.716;10.296;2022-08-07T05:45:28;8.43;;;5.38;;
48285;SDS011;34102;47.716;10.296;2022-08-07T05:47:54;6.20;;;4.75;;
48285;SDS011;34102;47.716;10.296;2022-08-07T05:50:20;8.43;;;4.78;;
48285;SDS011;34102;47.716;10.296;2022-08-07T05:52:45;5.82;;;4.40;;
48285;SDS011;34102;47.716;10.296;2022-08-07T05:55:11;6.10;;;4.75;;
48285;SDS011;34102;47.716;10.296;2022-08-07T05:57:36;5.10;;;4.60;;
48285;SDS011;34102;47.716;10.296;2022-08-07T06:00:03;5.50;;;4.68;;
48285;SDS011;34102;47.716;10.296;2022-08-07T06:02:30;5.88;;;5.05;;
48285;SDS011;34102;47.716;10.296;2022-08-07T06:05:06;6.28;;;4.50;;
48285;SDS011;34102;47.716;10.296;2022-08-07T06:07:32;4.90;;;4.30;;
48285;SDS011;34102;47.716;10.296;2022-08-07T06:09:58;7.13;;;4.75;;
48285;SDS011;34102;47.716;10.296;2022-08-07T06:12:23;7.32;;;5.85;;
48285;SDS011;34102;47.716;10.296;2022-08-07T06:14:49;6.30;;;5.10;;
48285;SDS011;34102;47.716;10.296;2022-08-07T06:17:14;7.20;;;5.97;;
48285;SDS011;34102;47.716;10.296;2022-08-07T06:19:40;6.03;;;5.13;;
48285;SDS011;34102;47.716;10.296;2022-08-07T06:22:06;5.65;;;5.05;;
48285;SDS011;34102;47.716;10.296;2022-08-07T06:24:31;6.50;;;5.32;;
48285;SDS011;34102;47.716;10.296;2022-08-07T06:26:57;5.55;;;4.88;;
48285;SDS011;34102;47.716;10.296;2022-08-07T06:29:27;6.05;;;5.45;;
48285;SDS011;34102;47.716;10.296;2022-08-07T06:31:53;6.65;;;4.97;;
48285;SDS011;34102;47.716;10.296;2022-08-07T06:34:18;5.50;;;4.68;;
48285;SDS011;34102;47.716;10.296;2022-08-07T06:36:45;5.40;;;4.90;;
48285;SDS011;34102;47.716;10.296;2022-08-07T06:39:11;6.43;;;5.22;;
48285;SDS011;34102;47.716;10.296;2022-08-07T06:41:37;8.15;;;5.15;;
48285;SDS011;34102;47.716;10.296;2022-08-07T06:44:04;6.95;;;5.07;;
48285;SDS011;34102;47.716;10.296;2022-08-07T06:46:30;6.10;;;5.25;;
48285;SDS011;34102;47.716;10.296;2022-08-07T06:48:56;5.20;;;4.70;;
48285;SDS011;34102;47.716;10.296;2022-08-07T06:51:22;5.50;;;4.72;;
48285;SDS011;34102;47.716;10.296;2022-08-07T06:53:48;6.38;;;5.13;;
48285;SDS011;34102;47.716;10.296;2022-08-07T06:56:14;6.82;;;4.65;;
48285;SDS011;34102;47.716;10.296;2022-08-07T06:58:40;5.57;;;4.65;;
48285;SDS011;34102;47.716;10.296;2022-08-07T07:01:07;6.25;;;4.47;;
48285;SDS011;34102;47.716;10.296;2022-08-07T07:03:36;5.05;;;4.57;;
48285;SDS011;34102;47.716;10.296;2022-08-07T07:06:14;6.55;;;5.38;;
48285;SDS011;34102;47.716;10.296;2022-08-07T07:08:49;5.82;;;4.38;;
48285;SDS011;34102;47.716;10.296;2022-08-07T07:11:14;5.83;;;5.23;;
48285;SDS011;34102;47.716;10.296;2022-08-07T07:13:40;5.65;;;5.05;;
48285;SDS011;34102;47.716;10.296;2022-08-07T07:16:15;5.93;;;5.32;;
48285;SDS011;34102;47.716;10.296;2022-08-07T07:19:05;7.13;;;5.00;;
48285;SDS011;34102;47.716;10.296;2022-08-07T07:21:31;8.18;;;5.18;;
48285;SDS011;34102;47.716;10.296;2022-08-07T07:23:59;5.47;;;4.95;;
48285;SDS011;34102;47.716;10.296;2022-08-07T07:26:24;6.05;;;5.03;;
48285;SDS011;34102;47.716;10.296;2022-08-07T07:28:58;5.97;;;5.35;;
48285;SDS011;34102;47.716;10.296;2022-08-07T07:34:01;7.63;;;5.72;;
48285;SDS011;34102;47.716;10.296;2022-08-07T07:36:27;7.43;;;5.00;;
48285;SDS011;34102;47.716;10.296;2022-08-07T07:38:52;7.97;;;5.70;;
48285;SDS011;34102;47.716;10.296;2022-08-07T07:41:18;5.82;;;5.10;;
48285;SDS011;34102;47.716;10.296;2022-08-07T07:43:46;5.82;;;5.03;;
48285;SDS011;34102;47.716;10.296;2022-08-07T07:46:12;7.40;;;5.25;;
48285;SDS011;34102;47.716;10.296;2022-08-07T07:48:38;5.93;;;5.43;;
48285;SDS011;34102;47.716;10.296;2022-08-07T07:51:04;5.88;;;4.88;;
48285;SDS011;34102;47.716;10.296;2022-08-07T07:53:30;5.65;;;4.80;;
48285;SDS011;34102;47.716;10.296;2022-08-07T07:55:57;4.90;;;4.40;;
48285;SDS011;34102;47.716;10.296;2022-08-07T07:58:31;5.25;;;4.75;;
48285;SDS011;34102;47.716;10.296;2022-08-07T08:00:57;5.20;;;4.70;;
48285;SDS011;34102;47.716;10.296;2022-08-07T08:03:22;7.32;;;4.93;;
48285;SDS011;34102;47.716;10.296;2022-08-07T08:05:48;5.20;;;4.13;;
48285;SDS011;34102;47.716;10.296;2022-08-07T08:08:14;6.82;;;4.45;;
48285;SDS011;34102;47.716;10.296;2022-08-07T08:10:40;7.32;;;3.85;;
48285;SDS011;34102;47.716;10.296;2022-08-07T08:13:06;4.60;;;4.10;;
48285;SDS011;34102;47.716;10.296;2022-08-07T08:15:34;4.20;;;3.80;;
48285;SDS011;34102;47.716;10.296;2022-08-07T08:18:00;4.97;;;4.05;;
48285;SDS011;34102;47.716;10.296;2022-08-07T08:20:26;5.45;;;3.58;;
48285;SDS011;34102;47.716;10.296;2022-08-07T08:22:52;4.47;;;3.75;;
48285;SDS011;34102;47.716;10.296;2022-08-07T08:25:38;4.35;;;3.95;;
48285;SDS011;34102;47.716;10.296;2022-08-07T08:28:24;3.28;;;2.97;;
48285;SDS011;34102;47.716;10.296;2022-08-07T08:30:53;4.28;;;3.50;;
48285;SDS011;34102;47.716;10.296;2022-08-07T08:33:19;5.13;;;3.40;;
48285;SDS011;34102;47.716;10.296;2022-08-07T08:35:48;4.72;;;4.13;;
48285;SDS011;34102;47.716;10.296;2022-08-07T08:38:15;3.65;;;2.83;;
48285;SDS011;34102;47.716;10.296;2022-08-07T08:40:43;4.85;;;3.78;;
48285;SDS011;34102;47.716;10.296;2022-08-07T08:45:49;4.22;;;3.45;;
48285;SDS011;34102;47.716;10.296;2022-08-07T08:53:43;8.68;;;3.60;;
48285;SDS011;34102;47.716;10.296;2022-08-07T08:56:13;3.83;;;2.47;;
48285;SDS011;34102;47.716;10.296;2022-08-07T09:01:08;3.47;;;3.10;;
48285;SDS011;34102;47.716;10.296;2022-08-07T09:12:00;3.42;;;2.75;;
48285;SDS011;34102;47.716;10.296;2022-08-07T09:14:42;4.38;;;2.35;;
48285;SDS011;34102;47.716;10.296;2022-08-07T09:17:18;5.07;;;3.13;;
48285;SDS011;34102;47.716;10.296;2022-08-07T09:19:54;6.68;;;3.25;;
48285;SDS011;34102;47.716;10.296;2022-08-07T09:25:20;2.58;;;2.35;;
48285;SDS011;34102;47.716;10.296;2022-08-07T09:28:34;3.67;;;2.42;;
48285;SDS011;34102;47.716;10.296;2022-08-07T09:30:40;4.68;;;2.80;;
48285;SDS011;34102;47.716;10.296;2022-08-07T09:33:14;4.03;;;2.58;;
48285;SDS011;34102;47.716;10.296;2022-08-07T09:35:44;5.75;;;2.75;;
48285;SDS011;34102;47.716;10.296;2022-08-07T09:38:21;2.50;;;2.30;;
48285;SDS011;34102;47.716;10.296;2022-08-07T09:43:35;6.93;;;2.73;;
48285;SDS011;34102;47.716;10.296;2022-08-07T09:53:51;2.75;;;2.33;;
48285;SDS011;34102;47.716;10.296;2022-08-07T10:14:11;3.80;;;2.80;;
48285;SDS011;34102;47.716;10.296;2022-08-07T10:27:34;4.93;;;2.55;;
48285;SDS011;34102;47.716;10.296;2022-08-07T10:30:04;4.78;;;3.92;;
48285;SDS011;34102;47.716;10.296;2022-08-07T10:35:18;2.20;;;2.00;;
48285;SDS011;34102;47.716;10.296;2022-08-07T10:40:24;3.60;;;2.58;;
48285;SDS011;34102;47.716;10.296;2022-08-07T10:45:36;3.05;;;2.58;;
48285;SDS011;34102;47.716;10.296;2022-08-07T10:50:34;3.00;;;2.70;;
48285;SDS011;34102;47.716;10.296;2022-08-07T10:53:08;3.05;;;2.38;;
48285;SDS011;34102;47.716;10.296;2022-08-07T10:58:27;5.05;;;2.75;;
48285;SDS011;34102;47.716;10.296;2022-08-07T11:00:57;2.17;;;1.98;;
48285;SDS011;34102;47.716;10.296;2022-08-07T11:03:33;4.03;;;2.40;;
48285;SDS011;34102;47.716;10.296;2022-08-07T11:06:05;3.95;;;2.50;;
48285;SDS011;34102;47.716;10.296;2022-08-07T11:08:38;4.43;;;2.60;;
48285;SDS011;34102;47.716;10.296;2022-08-07T11:11:07;2.67;;;2.28;;
48285;SDS011;34102;47.716;10.296;2022-08-07T11:16:16;2.85;;;2.47;;
48285;SDS011;34102;47.716;10.296;2022-08-07T11:18:58;2.83;;;2.42;;
48285;SDS011;34102;47.716;10.296;2022-08-07T11:21:27;4.03;;;2.35;;
48285;SDS011;34102;47.716;10.296;2022-08-07T11:23:58;3.35;;;2.38;;
48285;SDS011;34102;47.716;10.296;2022-08-07T11:32:28;4.10;;;2.53;;
48285;SDS011;34102;47.716;10.296;2022-08-07T11:34:50;2.83;;;2.40;;
48285;SDS011;34102;47.716;10.296;2022-08-07T11:37:32;3.05;;;2.30;;
48285;SDS011;34102;47.716;10.296;2022-08-07T11:40:06;2.92;;;2.13;;
48285;SDS011;34102;47.716;10.296;2022-08-07T11:42:39;3.10;;;2.22;;
48285;SDS011;34102;47.716;10.296;2022-08-07T11:47:47;2.55;;;2.00;;
48285;SDS011;34102;47.716;10.296;2022-08-07T11:55:44;2.38;;;2.17;;
48285;SDS011;34102;47.716;10.296;2022-08-07T11:58:37;4.80;;;2.35;;
48285;SDS011;34102;47.716;10.296;2022-08-07T12:11:09;3.85;;;2.53;;
48285;SDS011;34102;47.716;10.296;2022-08-07T12:13:41;4.95;;;2.30;;
48285;SDS011;34102;47.716;10.296;2022-08-07T12:16:10;5.57;;;2.47;;
48285;SDS011;34102;47.716;10.296;2022-08-07T12:21:41;3.95;;;2.40;;
48285;SDS011;34102;47.716;10.296;2022-08-07T12:24:09;2.03;;;1.80;;
48285;SDS011;34102;47.716;10.296;2022-08-07T12:26:46;2.42;;;2.20;;
48285;SDS011;34102;47.716;10.296;2022-08-07T12:32:06;2.30;;;1.92;;
48285;SDS011;34102;47.716;10.296;2022-08-07T12:34:34;3.03;;;2.70;;
48285;SDS011;34102;47.716;10.296;2022-08-07T12:37:01;3.38;;;2.20;;
48285;SDS011;34102;47.716;10.296;2022-08-07T12:39:27;2.40;;;2.10;;
48285;SDS011;34102;47.716;10.296;2022-08-07T12:41:54;2.63;;;2.25;;
48285;SDS011;34102;47.716;10.296;2022-08-07T12:44:20;3.80;;;2.50;;
48285;SDS011;34102;47.716;10.296;2022-08-07T12:49:25;3.70;;;2.67;;
48285;SDS011;34102;47.716;10.296;2022-08-07T12:52:14;4.32;;;2.45;;
48285;SDS011;34102;47.716;10.296;2022-08-07T12:54:39;3.90;;;2.40;;
48285;SDS011;34102;47.716;10.296;2022-08-07T12:57:07;3.55;;;2.28;;
48285;SDS011;34102;47.716;10.296;2022-08-07T12:59:34;3.38;;;2.40;;
48285;SDS011;34102;47.716;10.296;2022-08-07T13:22:55;4.10;;;2.27;;
48285;SDS011;34102;47.716;10.296;2022-08-07T13:25:30;2.47;;;1.70;;
48285;SDS011;34102;47.716;10.296;2022-08-07T13:28:02;2.92;;;1.50;;
48285;SDS011;34102;47.716;10.296;2022-08-07T13:30:29;3.75;;;2.20;;
48285;SDS011;34102;47.716;10.296;2022-08-07T13:36:00;2.15;;;1.95;;
48285;SDS011;34102;47.716;10.296;2022-08-07T13:43:27;2.10;;;1.90;;
48285;SDS011;34102;47.716;10.296;2022-08-07T13:45:54;2.83;;;2.05;;
48285;SDS011;34102;47.716;10.296;2022-08-07T13:48:20;2.97;;;2.25;;
48285;SDS011;34102;47.716;10.296;2022-08-07T13:50:47;2.33;;;2.13;;
48285;SDS011;34102;47.716;10.296;2022-08-07T13:53:21;2.33;;;1.85;;
48285;SDS011;34102;47.716;10.296;2022-08-07T13:55:47;2.75;;;2.40;;
48285;SDS011;34102;47.716;10.296;2022-08-07T13:58:13;3.30;;;2.60;;
48285;SDS011;34102;47.716;10.296;2022-08-07T14:00:58;2.95;;;2.65;;
48285;SDS011;34102;47.716;10.296;2022-08-07T14:03:24;2.25;;;2.05;;
48285;SDS011;34102;47.716;10.296;2022-08-07T14:05:51;5.10;;;2.78;;
48285;SDS011;34102;47.716;10.296;2022-08-07T14:08:19;4.38;;;3.20;;
48285;SDS011;34102;47.716;10.296;2022-08-07T14:10:44;2.85;;;2.20;;
48285;SDS011;34102;47.716;10.296;2022-08-07T14:13:13;4.32;;;2.40;;
48285;SDS011;34102;47.716;10.296;2022-08-07T14:15:43;2.45;;;2.03;;
48285;SDS011;34102;47.716;10.296;2022-08-07T14:18:14;2.80;;;2.38;;
48285;SDS011;34102;47.716;10.296;2022-08-07T14:20:40;3.25;;;1.70;;
48285;SDS011;34102;47.716;10.296;2022-08-07T14:23:10;2.13;;;2.00;;
48285;SDS011;34102;47.716;10.296;2022-08-07T14:25:38;2.28;;;2.08;;
48285;SDS011;34102;47.716;10.296;2022-08-07T14:28:07;3.30;;;2.10;;
48285;SDS011;34102;47.716;10.296;2022-08-07T14:30:33;2.17;;;1.88;;
48285;SDS011;34102;47.716;10.296;2022-08-07T14:32:59;4.85;;;2.08;;
48285;SDS011;34102;47.716;10.296;2022-08-07T14:35:29;4.10;;;2.17;;
48285;SDS011;34102;47.716;10.296;2022-08-07T14:37:56;3.35;;;2.25;;
48285;SDS011;34102;47.716;10.296;2022-08-07T14:40:22;8.18;;;2.30;;
48285;SDS011;34102;47.716;10.296;2022-08-07T14:43:07;2.70;;;1.77;;
48285;SDS011;34102;47.716;10.296;2022-08-07T14:45:42;4.15;;;1.95;;
48285;SDS011;34102;47.716;10.296;2022-08-07T14:48:09;2.83;;;2.20;;
48285;SDS011;34102;47.716;10.296;2022-08-07T14:50:35;3.55;;;2.30;;
48285;SDS011;34102;47.716;10.296;2022-08-07T14:53:05;2.60;;;2.30;;
48285;SDS011;34102;47.716;10.296;2022-08-07T14:55:31;2.92;;;1.90;;
48285;SDS011;34102;47.716;10.296;2022-08-07T14:57:58;4.15;;;1.90;;
48285;SDS011;34102;47.716;10.296;2022-08-07T15:00:25;1.90;;;1.80;;
48285;SDS011;34102;47.716;10.296;2022-08-07T15:02:52;1.80;;;1.70;;
48285;SDS011;34102;47.716;10.296;2022-08-07T15:05:18;2.30;;;2.00;;
48285;SDS011;34102;47.716;10.296;2022-08-07T15:07:45;3.00;;;1.95;;
48285;SDS011;34102;47.716;10.296;2022-08-07T15:10:21;2.35;;;2.13;;
48285;SDS011;34102;47.716;10.296;2022-08-07T15:12:47;2.67;;;2.03;;
48285;SDS011;34102;47.716;10.296;2022-08-07T15:15:14;4.28;;;2.10;;
48285;SDS011;34102;47.716;10.296;2022-08-07T15:17:43;3.53;;;2.00;;
48285;SDS011;34102;47.716;10.296;2022-08-07T15:20:10;2.88;;;1.65;;
48285;SDS011;34102;47.716;10.296;2022-08-07T15:22:49;5.53;;;2.35;;
48285;SDS011;34102;47.716;10.296;2022-08-07T15:25:17;1.90;;;1.70;;
48285;SDS011;34102;47.716;10.296;2022-08-07T15:27:47;3.28;;;2.00;;
48285;SDS011;34102;47.716;10.296;2022-08-07T15:30:13;2.75;;;2.25;;
48285;SDS011;34102;47.716;10.296;2022-08-07T15:32:40;2.38;;;2.08;;
48285;SDS011;34102;47.716;10.296;2022-08-07T15:35:11;3.90;;;2.50;;
48285;SDS011;34102;47.716;10.296;2022-08-07T15:37:36;2.33;;;2.13;;
48285;SDS011;34102;47.716;10.296;2022-08-07T15:40:03;6.88;;;2.40;;
48285;SDS011;34102;47.716;10.296;2022-08-07T15:45:02;2.25;;;2.05;;
48285;SDS011;34102;47.716;10.296;2022-08-07T15:47:33;3.47;;;2.30;;
48285;SDS011;34102;47.716;10.296;2022-08-07T15:49:59;4.32;;;2.28;;
48285;SDS011;34102;47.716;10.296;2022-08-07T15:52:26;2.28;;;2.00;;
48285;SDS011;34102;47.716;10.296;2022-08-07T15:54:53;2.03;;;1.70;;
48285;SDS011;34102;47.716;10.296;2022-08-07T15:57:25;2.38;;;2.10;;
48285;SDS011;34102;47.716;10.296;2022-08-07T15:59:51;25.50;;;7.50;;
48285;SDS011;34102;47.716;10.296;2022-08-07T16:02:28;14.38;;;5.88;;
48285;SDS011;34102;47.716;10.296;2022-08-07T16:04:57;8.65;;;3.30;;
48285;SDS011;34102;47.716;10.296;2022-08-07T16:07:25;7.35;;;2.50;;
48285;SDS011;34102;47.716;10.296;2022-08-07T16:09:52;5.53;;;3.35;;
48285;SDS011;34102;47.716;10.296;2022-08-07T16:24:58;4.88;;;1.83;;
48285;SDS011;34102;47.716;10.296;2022-08-07T16:27:30;2.35;;;2.15;;
48285;SDS011;34102;47.716;10.296;2022-08-07T16:32:38;2.85;;;2.30;;
48285;SDS011;34102;47.716;10.296;2022-08-07T16:50:34;4.22;;;2.65;;
48285;SDS011;34102;47.716;10.296;2022-08-07T16:53:11;3.90;;;2.72;;
48285;SDS011;34102;47.716;10.296;2022-08-07T17:03:18;2.93;;;2.20;;
48285;SDS011;34102;47.716;10.296;2022-08-07T17:08:09;2.88;;;2.45;;
48285;SDS011;34102;47.716;10.296;2022-08-07T17:10:43;5.20;;;2.15;;
48285;SDS011;34102;47.716;10.296;2022-08-07T17:18:34;4.53;;;2.40;;
48285;SDS011;34102;47.716;10.296;2022-08-07T17:21:02;10.13;;;3.40;;
48285;SDS011;34102;47.716;10.296;2022-08-07T17:23:35;2.90;;;2.28;;
48285;SDS011;34102;47.716;10.296;2022-08-07T17:31:14;4.13;;;2.25;;
48285;SDS011;34102;47.716;10.296;2022-08-07T17:33:44;4.55;;;2.55;;
48285;SDS011;34102;47.716;10.296;2022-08-07T17:36:12;2.72;;;2.22;;
48285;SDS011;34102;47.716;10.296;2022-08-07T17:38:59;7.55;;;2.58;;
48285;SDS011;34102;47.716;10.296;2022-08-07T17:41:29;3.92;;;2.58;;
48285;SDS011;34102;47.716;10.296;2022-08-07T17:43:58;7.53;;;2.63;;
48285;SDS011;34102;47.716;10.296;2022-08-07T17:46:34;9.65;;;3.17;;
48285;SDS011;34102;47.716;10.296;2022-08-07T17:49:09;4.47;;;3.47;;
48285;SDS011;34102;47.716;10.296;2022-08-07T17:51:43;3.55;;;2.17;;
48285;SDS011;34102;47.716;10.296;2022-08-07T17:54:16;4.53;;;3.22;;
48285;SDS011;34102;47.716;10.296;2022-08-07T17:56:56;3.95;;;3.15;;